Time;durP1;ratioP1;P1;durP2;ratioP2;P2;SDS_P1;SDS_P2;PMS_P1;PMS_P2;Temp;Humidity;BMP_temperature;BMP_pressure;BME280_temperature;BME280_humidity;BME280_pressure;Samples;Min_cycle;Max_cycle;Signal;HPM_P1;HPM_P2
2022/04/07 00:01:26;;;;;;;9.90;9.10;;;9.30;99.90;;;;;;5059320;28;20530;-69
2022/04/07 00:04:15;;;;;;;11.13;10.23;;;9.30;99.90;;;;;;5048840;28;20537;-69
2022/04/07 00:07:03;;;;;;;10.87;9.97;;;9.30;99.90;;;;;;5051247;28;20572;-69
2022/04/07 00:09:52;;;;;;;10.93;10.00;;;9.30;99.90;;;;;;5049990;28;20610;-69
2022/04/07 00:12:41;;;;;;;11.17;10.10;;;9.30;99.90;;;;;;5052312;28;20485;-69
2022/04/07 00:15:30;;;;;;;11.00;10.10;;;9.30;99.90;;;;;;5055710;28;20448;-69
2022/04/07 00:18:20;;;;;;;11.20;10.30;;;9.30;99.90;;;;;;5050069;28;21001;-69
2022/04/07 00:21:11;;;;;;;10.90;9.90;;;9.30;99.90;;;;;;5047452;28;20454;-69
2022/04/07 00:24:00;;;;;;;10.97;9.97;;;9.30;99.90;;;;;;5050139;28;20461;-69
2022/04/07 00:26:48;;;;;;;10.93;9.97;;;9.30;99.90;;;;;;5064629;28;20537;-69
2022/04/07 00:29:36;;;;;;;10.03;9.23;;;9.30;99.90;;;;;;5050041;28;20539;-69
2022/04/07 00:32:24;;;;;;;9.40;8.60;;;9.30;99.90;;;;;;5049297;28;20571;-69
2022/04/07 00:35:17;;;;;;;10.47;9.53;;;9.30;99.90;;;;;;5051828;28;21085;-69
2022/04/07 00:38:05;;;;;;;8.97;8.33;;;9.40;99.90;;;;;;5051042;28;22886;-69
2022/04/07 00:40:53;;;;;;;10.33;9.37;;;9.40;99.90;;;;;;5043804;28;20568;-69
2022/04/07 00:43:41;;;;;;;9.53;8.83;;;9.40;99.90;;;;;;5050080;28;20469;-70
2022/04/07 00:46:30;;;;;;;10.10;9.10;;;9.40;99.90;;;;;;5054840;28;20493;-69
2022/04/07 00:49:18;;;;;;;9.60;8.80;;;9.40;99.90;;;;;;5051769;28;20621;-69
2022/04/07 00:52:09;;;;;;;9.80;9.00;;;9.40;99.90;;;;;;5050071;28;20460;-69
2022/04/07 00:54:58;;;;;;;9.83;8.93;;;9.40;99.90;;;;;;5053914;28;20539;-69
2022/04/07 00:57:47;;;;;;;10.00;9.00;;;9.40;99.90;;;;;;5053959;28;20665;-70
2022/04/07 01:00:35;;;;;;;9.40;8.60;;;9.40;99.90;;;;;;5052930;28;20454;-69
2022/04/07 01:03:23;;;;;;;10.20;9.40;;;9.40;99.90;;;;;;5052212;28;20918;-69
2022/04/07 01:06:12;;;;;;;9.77;8.87;;;9.40;99.90;;;;;;5053461;28;20599;-69
2022/04/07 01:09:02;;;;;;;10.23;8.57;;;9.40;99.90;;;;;;5051383;28;20537;-69
2022/04/07 01:11:52;;;;;;;8.70;8.00;;;9.40;99.90;;;;;;5054769;28;20537;-69
2022/04/07 01:14:53;;;;;;;10.00;9.20;;;9.40;99.90;;;;;;5056092;28;20457;-69
2022/04/07 01:17:42;;;;;;;9.60;8.70;;;9.40;99.90;;;;;;5056893;28;22096;-69
2022/04/07 01:20:30;;;;;;;9.80;8.90;;;9.40;99.90;;;;;;5057349;28;20580;-69
2022/04/07 01:23:19;;;;;;;11.30;10.20;;;9.40;99.90;;;;;;5053740;28;20482;-73
2022/04/07 01:26:10;;;;;;;11.27;10.17;;;9.40;99.90;;;;;;5044289;28;20972;-70
2022/04/07 01:29:00;;;;;;;11.73;10.73;;;9.40;99.90;;;;;;5053804;28;20499;-70
2022/04/07 01:31:48;;;;;;;11.50;10.50;;;9.40;99.90;;;;;;5053542;28;20504;-69
2022/04/07 01:34:37;;;;;;;11.97;10.97;;;9.40;99.90;;;;;;5063681;28;20458;-73
2022/04/07 01:37:25;;;;;;;11.53;10.53;;;9.40;99.90;;;;;;5078355;28;20526;-69
2022/04/07 01:40:16;;;;;;;12.27;11.17;;;9.40;99.90;;;;;;5070111;28;20470;-69
2022/04/07 01:43:09;;;;;;;12.33;11.03;;;9.40;99.90;;;;;;5073776;28;20499;-69
2022/04/07 01:45:57;;;;;;;11.77;10.67;;;9.40;99.90;;;;;;5068876;28;21027;-68
2022/04/07 01:48:47;;;;;;;11.57;10.57;;;9.30;99.90;;;;;;5062375;28;20847;-69
2022/04/07 01:51:38;;;;;;;10.80;9.90;;;9.40;99.90;;;;;;5062379;28;20557;-69
2022/04/07 01:54:27;;;;;;;10.63;9.70;;;9.40;99.90;;;;;;5064216;28;20908;-69
2022/04/07 01:57:16;;;;;;;11.50;10.50;;;9.40;99.90;;;;;;5063035;28;20573;-69
2022/04/07 02:00:06;;;;;;;10.70;9.90;;;9.40;99.90;;;;;;5064346;28;20533;-70
2022/04/07 02:02:54;;;;;;;10.83;10.03;;;9.40;99.90;;;;;;5060246;28;20537;-69
2022/04/07 02:05:43;;;;;;;10.43;9.43;;;9.40;99.90;;;;;;5053635;28;20454;-69
2022/04/07 02:08:31;;;;;;;9.93;9.03;;;9.40;99.90;;;;;;5052843;28;20610;-69
2022/04/07 02:11:19;;;;;;;10.47;9.57;;;9.40;99.90;;;;;;5047399;28;20572;-69
2022/04/07 02:14:07;;;;;;;11.00;9.83;;;9.50;99.90;;;;;;5048298;28;20457;-69
2022/04/07 02:16:57;;;;;;;11.17;10.07;;;9.50;99.90;;;;;;5049551;28;20481;-69
2022/04/07 02:19:46;;;;;;;10.30;9.40;;;9.40;99.90;;;;;;5053919;28;20453;-69
2022/04/07 02:22:34;;;;;;;9.60;8.60;;;9.50;99.90;;;;;;5051426;28;20654;-69
2022/04/07 02:25:23;;;;;;;8.60;7.90;;;9.50;99.90;;;;;;5051849;28;21140;-69
2022/04/07 02:28:12;;;;;;;9.07;8.27;;;9.50;99.90;;;;;;5062650;28;20453;-69
2022/04/07 02:31:00;;;;;;;8.80;8.10;;;9.50;99.90;;;;;;5075613;28;20474;-71
2022/04/07 02:33:49;;;;;;;9.17;8.27;;;9.40;99.90;;;;;;5066777;28;20499;-69
2022/04/07 02:36:37;;;;;;;9.63;8.70;;;9.50;99.90;;;;;;5045462;28;20477;-70
2022/04/07 02:39:26;;;;;;;12.40;9.13;;;9.50;99.90;;;;;;5062810;22;20615;-72
2022/04/07 02:42:14;;;;;;;11.20;9.13;;;9.50;99.90;;;;;;5009358;28;20448;-71
2022/04/07 02:45:03;;;;;;;9.37;8.47;;;9.50;99.90;;;;;;5012412;28;20981;-71
2022/04/07 02:47:51;;;;;;;10.17;9.27;;;9.50;99.90;;;;;;5017755;28;20507;-71
2022/04/07 02:50:40;;;;;;;9.70;8.73;;;9.50;99.90;;;;;;5012108;28;20898;-72
2022/04/07 02:53:28;;;;;;;9.10;8.37;;;9.50;99.90;;;;;;5006242;28;20444;-71
2022/04/07 02:56:16;;;;;;;8.70;7.90;;;9.50;99.90;;;;;;5009599;28;20509;-74
2022/04/07 02:59:05;;;;;;;10.23;9.30;;;9.60;99.90;;;;;;5013941;28;20538;-74
2022/04/07 03:01:56;;;;;;;10.87;9.87;;;9.50;99.90;;;;;;5014302;28;20463;-71
2022/04/07 03:04:44;;;;;;;10.90;9.97;;;9.40;99.90;;;;;;5001578;28;20466;-71
2022/04/07 03:07:36;;;;;;;11.07;10.10;;;9.40;99.90;;;;;;5010250;28;20490;-72
2022/04/07 03:10:24;;;;;;;11.20;10.20;;;9.40;99.90;;;;;;5010944;28;20569;-74
2022/04/07 03:13:12;;;;;;;11.20;10.20;;;9.30;99.90;;;;;;5007918;28;20506;-73
2022/04/07 03:16:00;;;;;;;11.70;10.70;;;9.30;99.90;;;;;;5011962;28;20481;-74
2022/04/07 03:18:49;;;;;;;12.33;11.30;;;9.30;99.90;;;;;;5011994;28;20479;-71
2022/04/07 03:21:37;;;;;;;13.17;11.80;;;9.20;99.90;;;;;;5012040;28;20586;-71
2022/04/07 03:24:26;;;;;;;13.23;12.03;;;9.20;99.90;;;;;;5010474;28;20962;-72
2022/04/07 03:27:25;;;;;;;13.23;12.03;;;9.20;99.90;;;;;;5011330;28;20459;-75
2022/04/07 03:30:13;;;;;;;13.00;11.80;;;9.30;99.90;;;;;;5013233;28;20497;-71
2022/04/07 03:33:02;;;;;;;13.70;12.50;;;9.30;99.90;;;;;;5020192;28;20834;-70
2022/04/07 03:35:50;;;;;;;12.03;10.93;;;9.30;99.90;;;;;;5020811;28;20503;-71
2022/04/07 03:38:38;;;;;;;12.90;11.70;;;9.40;99.90;;;;;;5021308;28;21113;-70
2022/04/07 03:41:29;;;;;;;12.07;10.97;;;9.40;99.90;;;;;;5019239;28;20542;-71
2022/04/07 03:44:18;;;;;;;12.37;11.27;;;9.40;99.90;;;;;;5016324;28;20517;-71
2022/04/07 03:47:07;;;;;;;12.43;11.33;;;9.40;99.90;;;;;;5029215;28;20534;-71
2022/04/07 03:49:55;;;;;;;13.07;11.70;;;9.40;99.90;;;;;;5027061;28;20533;-70
2022/04/07 03:52:43;;;;;;;11.33;10.23;;;9.40;99.90;;;;;;5021390;28;20456;-71
2022/04/07 03:55:32;;;;;;;11.03;10.03;;;9.40;99.90;;;;;;5019232;28;20497;-71
2022/04/07 03:58:22;;;;;;;10.57;9.73;;;9.50;99.90;;;;;;5018351;28;20863;-70
2022/04/07 04:01:10;;;;;;;11.33;10.17;;;9.50;99.90;;;;;;5019802;28;20871;-71
2022/04/07 04:03:59;;;;;;;10.83;9.83;;;9.50;99.90;;;;;;5017327;28;20458;-72
2022/04/07 04:06:47;;;;;;;9.90;9.00;;;9.50;99.90;;;;;;5006722;28;20471;-71
2022/04/07 04:09:35;;;;;;;9.80;8.83;;;9.50;99.90;;;;;;5008366;28;20507;-71
2022/04/07 04:12:23;;;;;;;10.40;9.40;;;9.50;99.90;;;;;;5012961;28;20572;-71
2022/04/07 04:15:13;;;;;;;10.23;9.37;;;9.50;99.90;;;;;;5010049;28;20459;-70
2022/04/07 04:18:01;;;;;;;10.33;9.30;;;9.50;99.90;;;;;;5009462;28;20449;-71
2022/04/07 04:20:49;;;;;;;10.53;9.43;;;9.50;99.90;;;;;;5016508;28;20478;-71
2022/04/07 04:23:38;;;;;;;9.10;8.30;;;9.50;99.90;;;;;;5013302;28;20504;-72
2022/04/07 04:26:26;;;;;;;8.63;7.93;;;9.50;99.90;;;;;;5010225;28;20448;-71
2022/04/07 04:29:15;;;;;;;10.37;9.23;;;9.50;99.90;;;;;;5011998;28;20482;-73
2022/04/07 04:32:05;;;;;;;9.13;8.40;;;9.50;99.90;;;;;;5001247;28;20483;-71
2022/04/07 04:34:53;;;;;;;8.23;7.53;;;9.50;99.90;;;;;;5005714;28;20565;-71
2022/04/07 04:37:41;;;;;;;9.00;8.10;;;9.50;99.90;;;;;;5008537;28;21018;-71
2022/04/07 04:40:30;;;;;;;8.83;8.00;;;9.50;99.90;;;;;;5003930;28;20630;-71
2022/04/07 04:43:18;;;;;;;8.20;7.50;;;9.50;99.90;;;;;;5005969;28;20476;-71
2022/04/07 04:46:07;;;;;;;8.17;7.40;;;9.50;99.90;;;;;;5013153;28;20459;-73
2022/04/07 04:48:56;;;;;;;8.27;7.47;;;9.50;99.90;;;;;;5001875;28;20448;-71
2022/04/07 04:51:44;;;;;;;8.20;7.40;;;9.50;99.90;;;;;;5002702;28;20496;-76
2022/04/07 04:54:34;;;;;;;8.47;7.70;;;9.50;99.90;;;;;;5003919;28;20591;-74
2022/04/07 04:57:22;;;;;;;8.50;7.70;;;9.50;99.90;;;;;;5007458;28;20594;-70
2022/04/07 05:00:11;;;;;;;9.50;8.50;;;9.50;99.90;;;;;;5011546;28;20526;-71
2022/04/07 05:03:00;;;;;;;9.53;8.70;;;9.40;99.90;;;;;;5004302;28;20456;-70
2022/04/07 05:05:49;;;;;;;9.10;8.27;;;9.50;99.90;;;;;;5008455;28;20507;-71
2022/04/07 05:08:37;;;;;;;10.27;9.20;;;9.40;99.90;;;;;;5005406;28;21013;-70
2022/04/07 05:11:26;;;;;;;9.20;8.40;;;9.40;99.90;;;;;;5006194;28;20471;-75
2022/04/07 05:14:14;;;;;;;9.13;8.23;;;9.40;99.90;;;;;;5009194;28;20459;-70
2022/04/07 05:17:02;;;;;;;9.50;8.70;;;9.40;99.90;;;;;;5007520;28;20451;-71
2022/04/07 05:19:51;;;;;;;11.07;9.97;;;9.40;99.90;;;;;;5004617;28;20507;-72
2022/04/07 05:22:40;;;;;;;9.50;8.50;;;9.30;99.90;;;;;;5005414;28;20589;-72
2022/04/07 05:25:28;;;;;;;8.30;7.60;;;9.40;99.90;;;;;;5006754;28;20573;-71
2022/04/07 05:28:16;;;;;;;9.47;7.77;;;9.40;99.90;;;;;;5009018;28;20580;-71
2022/04/07 05:31:04;;;;;;;9.40;7.77;;;9.40;99.90;;;;;;5013885;28;20491;-71
2022/04/07 05:33:53;;;;;;;10.10;7.27;;;9.40;99.90;;;;;;5002562;28;20553;-71
2022/04/07 05:36:42;;;;;;;7.00;6.40;;;9.40;99.90;;;;;;5006649;28;20454;-71
2022/04/07 05:39:31;;;;;;;7.20;6.60;;;9.50;99.90;;;;;;5022708;28;24344;-73
2022/04/07 05:42:19;;;;;;;7.17;6.50;;;9.40;99.90;;;;;;5018083;28;20464;-71
2022/04/07 05:45:09;;;;;;;6.10;5.60;;;9.40;99.90;;;;;;5020377;28;20524;-70
2022/04/07 05:47:57;;;;;;;5.93;5.17;;;9.40;99.90;;;;;;5016894;28;20444;-71
2022/04/07 05:50:46;;;;;;;6.13;5.57;;;9.40;99.90;;;;;;5031863;28;20522;-71
2022/04/07 05:53:34;;;;;;;6.10;5.60;;;9.40;99.90;;;;;;5002298;28;20452;-70
2022/04/07 05:56:24;;;;;;;5.80;5.17;;;9.40;99.90;;;;;;5027276;28;20539;-74
2022/04/07 05:59:12;;;;;;;5.90;5.10;;;9.40;99.90;;;;;;5021334;28;20574;-69
2022/04/07 06:02:00;;;;;;;5.70;5.20;;;9.40;99.90;;;;;;5020998;28;20483;-69
2022/04/07 06:04:48;;;;;;;5.43;4.93;;;9.40;99.90;;;;;;5011517;28;20948;-69
2022/04/07 06:07:37;;;;;;;5.50;5.00;;;9.30;99.90;;;;;;5016473;28;20586;-69
2022/04/07 06:10:25;;;;;;;6.33;5.70;;;9.30;99.90;;;;;;5011643;28;20558;-72
2022/04/07 06:13:15;;;;;;;7.10;5.80;;;9.30;99.90;;;;;;5007192;28;20468;-73
2022/04/07 06:16:04;;;;;;;5.50;4.70;;;9.30;99.90;;;;;;5012492;28;20482;-70
2022/04/07 06:18:52;;;;;;;6.97;5.60;;;9.30;99.90;;;;;;5010656;28;20471;-70
2022/04/07 06:21:43;;;;;;;6.90;6.30;;;9.30;99.90;;;;;;5008735;28;20480;-71
2022/04/07 06:24:34;;;;;;;6.13;5.60;;;9.40;99.90;;;;;;5015276;28;20458;-70
2022/04/07 06:27:22;;;;;;;7.63;6.43;;;9.40;99.90;;;;;;5014218;28;20499;-70
2022/04/07 06:30:14;;;;;;;6.90;6.30;;;9.40;99.90;;;;;;5014214;28;20550;-74
2022/04/07 06:33:03;;;;;;;8.30;6.97;;;9.40;99.90;;;;;;5016816;28;20462;-70
2022/04/07 06:35:51;;;;;;;7.47;6.70;;;9.40;99.90;;;;;;5013837;28;20518;-71
2022/04/07 06:38:39;;;;;;;8.00;7.20;;;9.50;99.90;;;;;;5003712;28;20487;-71
2022/04/07 06:41:27;;;;;;;9.53;7.30;;;9.50;99.90;;;;;;5005079;28;21071;-71
2022/04/07 06:44:18;;;;;;;8.57;7.83;;;9.50;99.90;;;;;;5014758;28;20548;-72
2022/04/07 06:47:08;;;;;;;8.00;7.23;;;9.60;99.90;;;;;;5018045;28;20464;-73
2022/04/07 06:49:57;;;;;;;8.13;7.43;;;9.60;99.90;;;;;;5012829;28;20978;-71
2022/04/07 06:52:45;;;;;;;8.33;7.53;;;9.60;99.90;;;;;;5011716;28;20460;-71
2022/04/07 06:55:33;;;;;;;8.43;7.63;;;9.70;99.90;;;;;;5011753;28;20455;-70
2022/04/07 06:58:25;;;;;;;10.37;7.60;;;9.70;99.90;;;;;;5011411;28;20459;-72
2022/04/07 07:01:14;;;;;;;8.03;7.23;;;9.80;99.90;;;;;;5005219;28;20476;-71
2022/04/07 07:04:04;;;;;;;8.23;6.67;;;9.70;99.90;;;;;;5009173;28;20461;-72
2022/04/07 07:06:52;;;;;;;7.70;7.00;;;9.80;99.90;;;;;;5005191;28;20806;-72
2022/04/07 07:09:40;;;;;;;7.40;6.60;;;9.80;99.90;;;;;;5011368;28;20495;-73
2022/04/07 07:12:28;;;;;;;7.30;6.60;;;9.80;99.90;;;;;;5007937;28;20569;-73
2022/04/07 07:15:17;;;;;;;7.47;6.73;;;9.90;99.90;;;;;;5007322;28;20448;-71
2022/04/07 07:18:06;;;;;;;7.43;6.57;;;9.90;99.90;;;;;;5023191;28;20463;-71
2022/04/07 07:20:55;;;;;;;6.00;5.40;;;9.90;99.90;;;;;;5009238;28;20507;-71
2022/04/07 07:23:43;;;;;;;7.70;5.33;;;10.00;99.90;;;;;;5011638;28;20538;-71
2022/04/07 07:26:32;;;;;;;8.30;5.57;;;10.00;99.90;;;;;;5006875;28;20452;-70
2022/04/07 07:29:20;;;;;;;7.13;5.60;;;10.00;99.90;;;;;;5009611;28;20926;-73
2022/04/07 07:32:08;;;;;;;6.83;5.53;;;10.10;99.90;;;;;;5015578;28;20478;-71
2022/04/07 07:34:58;;;;;;;6.87;5.50;;;10.10;99.90;;;;;;5016780;28;20475;-71
2022/04/07 07:37:52;;;;;;;6.13;5.50;;;10.10;99.90;;;;;;5016838;28;20463;-70
2022/04/07 07:40:41;;;;;;;6.57;5.80;;;10.00;99.90;;;;;;5015859;28;20894;-70
2022/04/07 07:43:29;;;;;;;6.63;5.43;;;10.00;99.90;;;;;;5010623;28;20463;-71
2022/04/07 07:46:17;;;;;;;7.37;5.43;;;10.00;99.90;;;;;;5014181;28;20451;-71
2022/04/07 07:49:08;;;;;;;10.53;5.63;;;9.90;99.90;;;;;;5016512;28;20459;-72
2022/04/07 07:51:56;;;;;;;5.53;5.03;;;9.90;99.90;;;;;;5008351;28;20967;-71
2022/04/07 07:54:46;;;;;;;8.07;5.27;;;9.90;99.90;;;;;;5013912;28;20452;-70
2022/04/07 07:57:34;;;;;;;6.30;5.07;;;9.80;99.90;;;;;;5009766;28;20452;-72
2022/04/07 08:00:24;;;;;;;7.40;5.80;;;9.80;99.90;;;;;;5018622;28;21019;-71
2022/04/07 08:03:12;;;;;;;6.73;5.13;;;9.80;99.90;;;;;;5015364;28;20620;-71
2022/04/07 08:06:01;;;;;;;7.20;6.10;;;9.70;99.90;;;;;;5017512;28;20533;-70
2022/04/07 08:08:49;;;;;;;5.20;4.80;;;9.70;99.90;;;;;;5022888;28;20733;-70
2022/04/07 08:11:43;;;;;;;5.50;4.50;;;9.60;99.90;;;;;;5002265;28;20935;-70
2022/04/07 08:14:32;;;;;;;5.60;4.97;;;9.60;99.90;;;;;;5005493;28;20471;-70
2022/04/07 08:17:21;;;;;;;5.83;4.90;;;9.60;99.90;;;;;;5012507;28;20530;-71
2022/04/07 08:20:10;;;;;;;5.20;4.70;;;9.50;99.90;;;;;;5009507;28;20518;-72
2022/04/07 08:22:58;;;;;;;5.43;4.93;;;9.50;99.90;;;;;;5012537;28;20580;-70
2022/04/07 08:25:46;;;;;;;7.00;6.13;;;9.50;99.90;;;;;;5009398;28;20581;-70
2022/04/07 08:28:35;;;;;;;5.30;4.67;;;9.50;99.90;;;;;;5013197;28;20465;-71
2022/04/07 08:31:25;;;;;;;5.43;4.93;;;9.50;99.90;;;;;;5008012;28;21422;-70
2022/04/07 08:34:14;;;;;;;5.43;4.93;;;9.40;99.90;;;;;;5009718;28;20455;-71
2022/04/07 08:37:02;;;;;;;6.73;5.50;;;9.40;99.90;;;;;;5013487;28;20456;-73
2022/04/07 08:39:53;;;;;;;6.70;4.97;;;9.40;99.90;;;;;;5014931;28;20472;-70
2022/04/07 08:42:47;;;;;;;5.80;4.53;;;9.40;99.90;;;;;;5044412;23;20861;-70
2022/04/07 08:45:37;;;;;;;7.50;4.70;;;9.40;99.90;;;;;;5038610;28;20459;-70
2022/04/07 08:48:26;;;;;;;6.03;4.30;;;9.40;99.90;;;;;;5039242;28;20945;-70
2022/04/07 08:51:14;;;;;;;6.87;4.97;;;9.40;99.90;;;;;;5032421;28;20473;-70
2022/04/07 08:54:02;;;;;;;5.70;4.70;;;9.30;99.90;;;;;;5043938;28;20871;-70
2022/04/07 08:56:51;;;;;;;6.33;5.00;;;9.30;99.90;;;;;;5049705;28;20457;-70
2022/04/07 08:59:40;;;;;;;5.20;3.60;;;9.30;99.90;;;;;;5054283;28;20800;-70
2022/04/07 09:02:30;;;;;;;4.53;3.50;;;9.30;99.90;;;;;;5049437;28;20590;-70
2022/04/07 09:05:23;;;;;;;5.63;3.47;;;9.30;99.90;;;;;;5053302;28;20461;-70
2022/04/07 09:08:12;;;;;;;2.20;2.10;;;9.30;99.90;;;;;;5050084;28;20474;-70
2022/04/07 09:11:01;;;;;;;0.80;0.80;;;9.00;99.90;;;;;;5055692;28;20464;-70
2022/04/07 09:13:50;;;;;;;2.00;1.10;;;8.70;99.90;;;;;;5054070;28;20595;-70
2022/04/07 09:16:39;;;;;;;1.47;0.70;;;8.30;99.90;;;;;;5055538;28;20526;-70
2022/04/07 09:19:30;;;;;;;0.73;0.60;;;8.20;99.90;;;;;;5053756;28;20457;-70
2022/04/07 09:22:18;;;;;;;3.83;0.80;;;8.10;99.90;;;;;;5051352;28;20465;-70
2022/04/07 09:25:07;;;;;;;2.07;1.00;;;8.00;99.90;;;;;;5056652;28;20454;-70
2022/04/07 09:28:00;;;;;;;1.23;0.50;;;7.90;99.90;;;;;;5056699;28;20949;-70
2022/04/07 09:30:50;;;;;;;0.70;0.70;;;7.80;99.90;;;;;;5050566;28;20449;-69
2022/04/07 09:33:38;;;;;;;1.00;0.80;;;7.70;99.90;;;;;;5052570;28;20502;-69
2022/04/07 09:36:28;;;;;;;1.50;0.70;;;7.60;99.90;;;;;;5064986;28;20552;-70
2022/04/07 09:39:24;;;;;;;1.47;0.80;;;7.50;99.90;;;;;;5070126;28;20454;-69
2022/04/07 09:42:23;;;;;;;0.97;0.60;;;7.40;99.90;;;;;;5062355;28;20469;-69
2022/04/07 09:45:13;;;;;;;0.63;0.63;;;7.40;99.90;;;;;;5060559;28;20996;-70
2022/04/07 09:48:01;;;;;;;2.17;0.87;;;7.40;99.90;;;;;;5058466;28;20818;-70
2022/04/07 09:51:02;;;;;;;1.23;0.77;;;7.40;99.90;;;;;;5060396;28;20558;-69
2022/04/07 09:53:56;;;;;;;1.53;0.90;;;7.40;99.90;;;;;;5058983;28;21039;-69
2022/04/07 09:56:45;;;;;;;1.43;1.03;;;7.30;99.90;;;;;;5062793;28;20446;-69
2022/04/07 09:59:34;;;;;;;2.83;0.90;;;7.30;99.90;;;;;;5063355;28;20547;-69
2022/04/07 10:02:22;;;;;;;1.03;0.80;;;7.30;99.90;;;;;;5061554;28;20476;-70
2022/04/07 10:05:11;;;;;;;1.43;0.70;;;7.30;99.90;;;;;;5048940;28;20545;-69
2022/04/07 10:08:00;;;;;;;2.03;0.90;;;7.20;99.90;;;;;;5057813;28;20838;-71
2022/04/07 10:10:50;;;;;;;0.93;0.70;;;7.10;99.90;;;;;;5047762;28;20932;-69
2022/04/07 10:13:40;;;;;;;2.10;0.70;;;7.00;99.90;;;;;;5053403;28;20453;-69
2022/04/07 10:16:49;;;;;;;2.00;1.00;;;7.00;99.90;;;;;;5056829;28;20453;-69
2022/04/07 10:19:45;;;;;;;1.07;0.97;;;7.00;99.90;;;;;;5048442;28;20539;-69
2022/04/07 10:22:56;;;;;;;1.17;1.00;;;7.00;99.90;;;;;;5057833;28;20482;-72
2022/04/07 10:25:47;;;;;;;1.27;0.70;;;6.80;99.90;;;;;;5050238;28;20454;-72
2022/04/07 10:28:37;;;;;;;0.90;0.73;;;6.80;99.90;;;;;;5049653;28;20504;-71
2022/04/07 10:31:26;;;;;;;0.70;0.70;;;6.80;99.90;;;;;;5055525;28;21005;-71
2022/04/07 10:34:31;;;;;;;1.33;0.90;;;6.60;99.90;;;;;;5055546;28;20922;-71
2022/04/07 10:37:30;;;;;;;1.33;0.90;;;6.60;99.90;;;;;;5051290;28;20498;-72
2022/04/07 10:40:39;;;;;;;1.10;0.87;;;6.60;99.90;;;;;;5053865;28;20899;-69
2022/04/07 10:43:27;;;;;;;1.10;0.90;;;6.60;99.90;;;;;;5053498;28;20934;-69
2022/04/07 10:46:19;;;;;;;1.33;0.90;;;6.50;99.90;;;;;;5055075;28;20470;-69
2022/04/07 10:49:09;;;;;;;1.90;1.03;;;6.50;99.90;;;;;;5052123;28;20567;-69
2022/04/07 10:51:59;;;;;;;2.07;1.00;;;6.50;99.90;;;;;;5049116;28;20480;-71
2022/04/07 10:55:20;;;;;;;2.27;1.03;;;6.40;99.90;;;;;;5049677;28;20469;-71
2022/04/07 10:58:11;;;;;;;0.87;0.87;;;6.30;99.90;;;;;;5055324;28;20538;-71
2022/04/07 11:00:59;;;;;;;1.00;0.90;;;6.20;99.90;;;;;;5052759;28;20450;-71
2022/04/07 11:04:32;;;;;;;1.23;1.13;;;6.10;99.90;;;;;;5054738;28;21202;-71
2022/04/07 11:07:22;;;;;;;1.20;1.10;;;6.10;99.90;;;;;;5057304;28;20836;-71
2022/04/07 11:10:13;;;;;;;0.80;0.80;;;6.10;99.90;;;;;;5061277;28;20442;-71
2022/04/07 11:13:03;;;;;;;1.37;1.27;;;6.10;99.90;;;;;;5056863;28;20469;-71
2022/04/07 11:15:55;;;;;;;2.70;1.63;;;6.10;99.90;;;;;;5053787;28;20465;-71
2022/04/07 11:18:57;;;;;;;1.70;1.60;;;6.20;99.90;;;;;;5051575;28;20500;-71
2022/04/07 11:21:50;;;;;;;2.50;2.30;;;6.30;99.90;;;;;;5056441;28;20458;-71
2022/04/07 11:24:44;;;;;;;2.30;2.10;;;6.40;99.90;;;;;;5046974;28;20528;-71
2022/04/07 11:27:36;;;;;;;2.97;2.57;;;6.50;99.90;;;;;;5052165;28;20867;-71
2022/04/07 11:30:37;;;;;;;3.17;2.87;;;6.80;99.90;;;;;;5055248;28;21111;-67
2022/04/07 11:33:28;;;;;;;3.40;2.60;;;7.10;99.90;;;;;;5059314;28;20487;-67
2022/04/07 11:36:38;;;;;;;3.23;1.93;;;7.30;99.90;;;;;;5052378;28;20442;-67
2022/04/07 11:39:29;;;;;;;4.43;2.20;;;7.60;99.90;;;;;;5054125;28;20948;-67
2022/04/07 11:42:18;;;;;;;3.17;2.40;;;7.70;99.90;;;;;;5048545;28;20481;-67
2022/04/07 11:45:08;;;;;;;2.10;2.00;;;8.00;99.90;;;;;;5055483;28;20480;-66
2022/04/07 11:47:57;;;;;;;2.10;1.90;;;8.30;99.90;;;;;;5059329;28;20541;-66
2022/04/07 11:50:45;;;;;;;2.20;1.77;;;8.50;99.90;;;;;;5048674;28;20446;-69
2022/04/07 11:53:34;;;;;;;3.33;2.10;;;8.70;99.90;;;;;;5053743;28;20457;-69
2022/04/07 11:56:26;;;;;;;1.70;1.60;;;8.70;99.90;;;;;;5057298;28;20450;-69
2022/04/07 11:59:15;;;;;;;2.60;2.10;;;8.70;99.90;;;;;;5060170;28;20833;-69
2022/04/07 12:02:03;;;;;;;2.40;1.90;;;8.80;99.90;;;;;;5054186;28;20473;-69
2022/04/07 12:04:56;;;;;;;3.90;1.80;;;8.90;99.90;;;;;;5048127;28;20509;-69
2022/04/07 12:07:46;;;;;;;2.03;1.80;;;9.00;99.90;;;;;;5051888;28;20485;-69
2022/04/07 12:10:35;;;;;;;1.80;1.63;;;9.00;99.90;;;;;;5053882;28;20461;-69
2022/04/07 12:13:24;;;;;;;3.13;2.00;;;8.90;99.90;;;;;;5052190;28;20454;-68
2022/04/07 12:16:15;;;;;;;2.10;2.00;;;9.00;99.90;;;;;;5053807;28;20956;-69
2022/04/07 12:19:05;;;;;;;2.50;2.30;;;9.20;99.90;;;;;;5056665;28;20461;-69
2022/04/07 12:21:55;;;;;;;4.40;2.70;;;9.50;99.90;;;;;;5061719;28;20555;-68
2022/04/07 12:24:59;;;;;;;2.80;2.07;;;9.70;99.90;;;;;;5044452;28;20461;-68
2022/04/07 12:27:47;;;;;;;2.30;2.10;;;9.70;99.90;;;;;;5045075;28;20457;-69
2022/04/07 12:30:48;;;;;;;2.07;1.80;;;9.90;99.90;;;;;;5054532;28;20466;-69
2022/04/07 12:33:37;;;;;;;2.40;2.20;;;10.00;99.90;;;;;;5048302;28;20475;-69
2022/04/07 12:36:37;;;;;;;5.43;2.40;;;10.20;99.90;;;;;;5047116;28;20483;-68
2022/04/07 12:39:28;;;;;;;3.20;2.10;;;10.40;99.90;;;;;;5047663;28;20453;-68
2022/04/07 12:42:21;;;;;;;2.33;2.10;;;10.60;99.90;;;;;;5053958;28;20471;-70
2022/04/07 12:45:09;;;;;;;2.10;2.00;;;10.80;99.90;;;;;;5051619;28;20476;-70
2022/04/07 12:48:08;;;;;;;3.03;2.17;;;11.00;99.90;;;;;;5050010;28;20465;-70
2022/04/07 12:51:26;;;;;;;2.30;2.10;;;11.20;99.90;;;;;;5053608;28;21553;-69
2022/04/07 12:54:15;;;;;;;2.43;2.23;;;11.60;99.90;;;;;;5053693;28;21129;-69
2022/04/07 12:57:10;;;;;;;3.10;2.40;;;11.40;99.90;;;;;;5059959;28;20978;-70
2022/04/07 12:59:59;;;;;;;4.03;2.50;;;11.60;99.90;;;;;;5053651;28;20805;-70
2022/04/07 13:02:49;;;;;;;2.70;2.00;;;11.60;99.90;;;;;;5043495;28;20481;-71
2022/04/07 13:05:39;;;;;;;2.63;2.07;;;11.50;99.90;;;;;;5043040;28;20460;-71
2022/04/07 13:08:27;;;;;;;4.23;2.30;;;11.60;99.90;;;;;;5053962;28;20527;-71
2022/04/07 13:11:31;;;;;;;2.50;2.17;;;11.70;99.90;;;;;;5051101;28;20462;-70
2022/04/07 13:14:20;;;;;;;2.57;2.37;;;11.70;99.90;;;;;;5047915;28;20466;-69
2022/04/07 13:17:09;;;;;;;2.60;2.00;;;11.30;99.90;;;;;;5050491;28;20457;-70
2022/04/07 13:20:00;;;;;;;4.57;2.67;;;11.20;99.90;;;;;;5043170;28;20477;-70
2022/04/07 13:22:50;;;;;;;3.40;3.10;;;11.00;99.90;;;;;;5061537;28;20478;-70
2022/04/07 13:25:38;;;;;;;4.43;3.67;;;10.70;99.90;;;;;;5056392;28;20454;-70
2022/04/07 13:28:26;;;;;;;3.60;3.03;;;10.50;99.90;;;;;;5051633;28;20522;-70
2022/04/07 13:31:15;;;;;;;5.43;3.90;;;10.40;99.90;;;;;;5045004;28;20466;-70
2022/04/07 13:34:05;;;;;;;4.30;3.70;;;10.20;99.90;;;;;;5053816;28;20937;-68
2022/04/07 13:36:53;;;;;;;5.37;4.00;;;10.10;99.90;;;;;;5053842;28;21040;-69
2022/04/07 13:39:43;;;;;;;4.00;3.67;;;10.00;99.90;;;;;;5057623;28;20461;-68
2022/04/07 13:42:53;;;;;;;3.30;3.10;;;10.20;99.90;;;;;;5062438;28;20472;-68
2022/04/07 13:45:44;;;;;;;4.50;3.37;;;10.30;99.90;;;;;;5052201;28;20541;-69
2022/04/07 13:48:39;;;;;;;4.00;3.70;;;10.20;99.90;;;;;;5065673;28;20555;-69
2022/04/07 13:51:28;;;;;;;4.43;4.13;;;10.10;99.90;;;;;;5059780;28;20576;-69
2022/04/07 13:54:16;;;;;;;4.40;4.00;;;10.00;99.90;;;;;;5061631;28;20461;-69
2022/04/07 13:57:07;;;;;;;4.10;3.70;;;10.00;99.90;;;;;;5067823;28;20822;-69
2022/04/07 13:59:55;;;;;;;4.20;3.80;;;9.90;99.90;;;;;;5057188;28;20829;-68
2022/04/07 14:02:43;;;;;;;3.93;3.63;;;9.90;99.90;;;;;;5062877;28;20528;-68
2022/04/07 14:05:32;;;;;;;3.53;3.23;;;9.90;99.90;;;;;;5053630;28;20476;-68
2022/04/07 14:08:20;;;;;;;4.83;3.20;;;9.80;99.90;;;;;;5051873;28;20454;-68
2022/04/07 14:11:08;;;;;;;2.50;2.10;;;9.90;99.90;;;;;;5054532;28;20580;-69
2022/04/07 14:13:59;;;;;;;4.00;1.70;;;10.20;99.90;;;;;;5057404;28;20449;-69
2022/04/07 14:16:48;;;;;;;2.23;1.10;;;10.40;99.90;;;;;;5047427;28;20473;-69
2022/04/07 14:19:36;;;;;;;3.30;1.57;;;10.60;99.90;;;;;;5050598;28;20446;-69
2022/04/07 14:22:25;;;;;;;2.13;1.20;;;10.80;99.90;;;;;;5060213;28;20480;-69
2022/04/07 14:25:13;;;;;;;3.30;1.57;;;11.00;99.90;;;;;;5062186;28;20570;-69
2022/04/07 14:28:01;;;;;;;2.97;1.30;;;11.20;99.90;;;;;;5054409;28;21033;-69
2022/04/07 14:30:51;;;;;;;3.33;1.33;;;11.20;99.90;;;;;;5057626;28;22283;-69
2022/04/07 14:33:39;;;;;;;2.50;1.57;;;11.00;99.90;;;;;;5060866;28;20469;-69
2022/04/07 14:36:27;;;;;;;2.60;1.53;;;10.90;99.90;;;;;;5060068;28;20875;-69
2022/04/07 14:39:15;;;;;;;3.10;1.93;;;10.70;99.90;;;;;;5054209;28;20453;-69
2022/04/07 14:42:04;;;;;;;1.87;1.03;;;10.60;99.90;;;;;;5041858;28;20509;-68
2022/04/07 14:44:52;;;;;;;6.03;1.80;;;10.40;99.90;;;;;;5051963;28;20469;-69
2022/04/07 14:47:42;;;;;;;3.47;1.73;;;10.30;99.90;;;;;;5053793;28;20832;-69
2022/04/07 14:50:30;;;;;;;6.70;2.00;;;10.20;99.90;;;;;;5048832;28;20461;-70
2022/04/07 14:53:19;;;;;;;2.47;1.50;;;10.10;99.90;;;;;;5055910;28;20464;-69